createdAt,value
2019-03-26T00:01:17.396Z,64.80
2019-03-26T00:03:48.238Z,65.20
2019-03-26T00:06:22.216Z,65.50
2019-03-26T00:09:04.881Z,65.90
2019-03-26T00:11:36.365Z,65.60
2019-03-26T00:14:07.555Z,65.80
2019-03-26T00:16:38.521Z,67.90
2019-03-26T00:19:10.948Z,67.50
2019-03-26T00:21:41.940Z,68.80
2019-03-26T00:24:12.873Z,67.70
2019-03-26T00:26:43.906Z,67.70
2019-03-26T00:29:14.806Z,67.30
2019-03-26T00:31:45.742Z,68.40
2019-03-26T00:34:19.586Z,67.40
2019-03-26T00:36:49.553Z,67.70
2019-03-26T00:39:24.129Z,66.20
2019-03-26T00:41:55.045Z,68.30
2019-03-26T00:44:26.504Z,66.70
2019-03-26T00:47:01.179Z,66.40
2019-03-26T00:49:37.088Z,67.00
2019-03-26T00:52:07.998Z,67.30
2019-03-26T00:54:39.120Z,66.90
2019-03-26T00:57:10.862Z,67.10
2019-03-26T00:59:43.803Z,66.10
2019-03-26T01:02:14.485Z,67.30
2019-03-26T01:04:45.292Z,67.90
2019-03-26T01:07:16.464Z,66.90
2019-03-26T01:09:47.469Z,66.50
2019-03-26T01:12:21.385Z,66.40
2019-03-26T01:14:53.419Z,66.10
2019-03-26T01:17:25.466Z,65.90
2019-03-26T01:19:58.611Z,66.30
2019-03-26T01:22:29.817Z,66.60
2019-03-26T01:25:00.987Z,66.30
2019-03-26T01:27:34.573Z,65.80
2019-03-26T01:30:07.256Z,65.50
2019-03-26T01:32:38.596Z,65.10
2019-03-26T01:35:10.094Z,65.00
2019-03-26T01:37:41.209Z,65.60
2019-03-26T01:40:12.775Z,64.60
2019-03-26T01:42:46.736Z,64.00
2019-03-26T01:45:17.757Z,64.50
2019-03-26T01:47:48.570Z,64.60
2019-03-26T01:50:22.446Z,64.20
2019-03-26T01:52:53.180Z,64.50
2019-03-26T01:55:24.405Z,64.00
2019-03-26T01:57:55.445Z,63.60
2019-03-26T02:00:26.391Z,64.20
2019-03-26T02:02:57.287Z,64.10
2019-03-26T02:05:31.455Z,64.40
2019-03-26T02:08:02.557Z,64.10
2019-03-26T02:10:40.035Z,63.50
2019-03-26T02:13:13.207Z,64.10
2019-03-26T02:15:44.443Z,64.10
2019-03-26T02:18:15.511Z,63.90
2019-03-26T02:21:07.969Z,64.20
2019-03-26T02:23:22.471Z,63.80
2019-03-26T02:25:53.680Z,63.80
2019-03-26T02:28:25.680Z,63.80
2019-03-26T02:30:57.030Z,63.70
2019-03-26T02:33:27.994Z,63.80
2019-03-26T02:36:04.849Z,63.70
2019-03-26T02:38:36.392Z,63.30
2019-03-26T02:41:07.463Z,62.80
2019-03-26T02:43:39.596Z,62.90
2019-03-26T02:46:10.607Z,62.70
2019-03-26T02:48:43.081Z,62.50
2019-03-26T02:51:14.292Z,62.40
2019-03-26T02:53:45.285Z,62.30
2019-03-26T02:56:19.213Z,61.90
2019-03-26T02:58:58.676Z,61.50
2019-03-26T03:01:29.808Z,61.30
2019-03-26T03:04:03.898Z,60.90
2019-03-26T03:06:36.128Z,60.80
2019-03-26T03:09:08.504Z,61.40
2019-03-26T03:11:39.741Z,60.30
2019-03-26T03:14:12.032Z,60.10
2019-03-26T03:16:43.497Z,59.80
2019-03-26T03:19:16.175Z,59.60
2019-03-26T03:21:49.735Z,59.50
2019-03-26T03:24:20.804Z,59.00
2019-03-26T03:26:53.427Z,59.30
2019-03-26T03:29:24.447Z,59.20
2019-03-26T03:31:55.627Z,59.00
2019-03-26T03:34:26.597Z,58.80
2019-03-26T03:36:57.694Z,58.10
2019-03-26T03:39:28.922Z,58.40
2019-03-26T03:42:04.012Z,57.00
2019-03-26T03:50:56.733Z,56.70
2019-03-26T03:53:29.714Z,57.50
2019-03-26T03:56:02.915Z,56.40
2019-03-26T03:58:35.186Z,57.50
2019-03-26T04:01:06.579Z,56.60
2019-03-26T04:03:40.495Z,56.40
2019-03-26T04:06:11.508Z,56.90
2019-03-26T04:08:43.433Z,56.80
2019-03-26T04:11:15.361Z,56.10
2019-03-26T04:13:46.363Z,56.60
2019-03-26T04:16:21.486Z,55.70
2019-03-26T04:18:52.530Z,55.80
2019-03-26T04:21:23.977Z,55.70
2019-03-26T04:23:56.857Z,55.50
2019-03-26T04:26:28.108Z,54.90
2019-03-26T04:29:00.601Z,55.40
2019-03-26T04:31:32.868Z,55.20
2019-03-26T04:34:04.475Z,55.00
2019-03-26T04:36:38.149Z,55.10
2019-03-26T04:39:10.574Z,55.70
2019-03-26T04:41:41.408Z,55.00
2019-03-26T04:44:13.955Z,54.20
2019-03-26T04:46:48.813Z,54.50
2019-03-26T04:49:19.898Z,55.00
2019-03-26T04:51:51.041Z,54.90
2019-03-26T04:54:22.169Z,54.40
2019-03-26T04:56:58.164Z,52.00
2019-03-26T04:59:29.069Z,51.10
2019-03-26T05:02:07.637Z,52.00
2019-03-26T05:04:42.143Z,52.60
2019-03-26T05:07:13.076Z,53.00
2019-03-26T05:09:44.081Z,53.10
2019-03-26T05:12:16.376Z,53.90
2019-03-26T05:14:47.797Z,53.20
2019-03-26T05:17:19.081Z,53.00
2019-03-26T05:19:50.884Z,53.20
2019-03-26T05:22:24.453Z,51.90
2019-03-26T05:24:55.714Z,52.90
2019-03-26T05:27:28.484Z,50.90
2019-03-26T05:29:59.651Z,52.40
2019-03-26T05:32:38.807Z,52.20
2019-03-26T05:35:11.755Z,51.10
2019-03-26T05:37:43.666Z,51.80
2019-03-26T05:40:16.172Z,48.70
2019-03-26T05:42:47.436Z,51.10
2019-03-26T05:45:19.418Z,50.50
2019-03-26T05:47:54.200Z,49.10
2019-03-26T05:50:28.050Z,49.60
2019-03-26T05:53:01.475Z,48.10
2019-03-26T05:55:32.854Z,49.50
2019-03-26T05:58:04.274Z,48.00
2019-03-26T06:00:35.604Z,48.90
2019-03-26T06:03:09.704Z,50.20
2019-03-26T06:05:43.137Z,50.40
2019-03-26T06:08:16.257Z,47.90
2019-03-26T06:10:47.802Z,48.50
2019-03-26T06:13:19.805Z,48.30
2019-03-26T06:15:51.517Z,46.90
2019-03-26T06:18:27.226Z,48.30
2019-03-26T06:20:58.473Z,47.80
2019-03-26T06:23:29.724Z,46.90
2019-03-26T06:26:04.218Z,47.70
2019-03-26T06:28:35.752Z,48.20
2019-03-26T06:31:10.317Z,47.10
2019-03-26T06:33:42.774Z,49.40
2019-03-26T06:36:21.811Z,48.70
2019-03-26T06:38:53.566Z,48.00
2019-03-26T06:41:28.515Z,47.60
2019-03-26T06:44:00.110Z,45.90
2019-03-26T06:46:31.165Z,46.90
2019-03-26T06:49:02.131Z,45.10
2019-03-26T06:51:33.157Z,47.30
2019-03-26T06:54:07.338Z,46.90
2019-03-26T06:56:38.625Z,47.40
2019-03-26T06:59:12.442Z,46.00
2019-03-26T07:01:43.798Z,47.00
2019-03-26T07:04:14.952Z,46.10
2019-03-26T07:06:47.029Z,44.40
2019-03-26T07:09:18.249Z,45.20
2019-03-26T07:11:49.119Z,44.70
2019-03-26T07:14:21.344Z,47.80
2019-03-26T07:16:52.527Z,47.60
2019-03-26T07:19:24.564Z,46.50
2019-03-26T07:21:55.776Z,46.70
2019-03-26T07:24:29.742Z,45.00
2019-03-26T07:27:01.648Z,46.60
2019-03-26T07:29:32.719Z,47.40
2019-03-26T07:32:04.020Z,44.70
2019-03-26T07:34:35.464Z,43.10
2019-03-26T07:37:07.828Z,44.20
2019-03-26T07:39:46.898Z,43.60
2019-03-26T07:42:18.198Z,42.90
2019-03-26T07:44:49.152Z,46.60
2019-03-26T07:47:20.193Z,42.60
2019-03-26T07:49:51.485Z,43.30
2019-03-26T07:52:22.848Z,45.90
2019-03-26T07:54:57.198Z,45.20
2019-03-26T07:57:28.764Z,44.60
2019-03-26T08:00:02.471Z,44.90
2019-03-26T08:02:33.677Z,44.90
2019-03-26T08:05:09.120Z,44.90
2019-03-26T08:07:40.510Z,44.60
2019-03-26T08:10:13.721Z,43.20
2019-03-26T08:12:44.920Z,40.90
2019-03-26T08:15:15.916Z,41.30
2019-03-26T08:17:47.128Z,43.30
2019-03-26T08:20:18.801Z,43.30
2019-03-26T08:22:50.881Z,42.90
2019-03-26T08:25:22.222Z,42.70
2019-03-26T08:27:53.366Z,43.60
2019-03-26T08:30:24.613Z,43.40
2019-03-26T08:32:55.682Z,40.70
2019-03-26T08:35:26.814Z,41.50
2019-03-26T08:38:11.368Z,41.90
2019-03-26T08:40:31.640Z,42.00
2019-03-26T08:43:02.652Z,43.60
2019-03-26T08:45:33.689Z,42.40
2019-03-26T08:48:04.973Z,42.20
2019-03-26T08:50:36.974Z,42.80
2019-03-26T08:53:07.998Z,44.20
2019-03-26T08:55:39.217Z,42.90
2019-03-26T08:58:10.203Z,39.30
2019-03-26T09:00:43.268Z,40.70
2019-03-26T09:03:14.337Z,41.20
2019-03-26T09:05:45.682Z,40.10
2019-03-26T09:08:25.370Z,41.50
2019-03-26T09:10:53.157Z,40.80
2019-03-26T09:13:24.206Z,41.10
2019-03-26T09:15:55.617Z,40.00
2019-03-26T09:18:31.651Z,39.70
2019-03-26T09:21:01.756Z,40.30
2019-03-26T09:23:32.663Z,41.60
2019-03-26T09:26:03.890Z,42.20
2019-03-26T09:28:35.011Z,43.30
2019-03-26T09:31:09.009Z,41.90
2019-03-26T09:33:39.942Z,40.70
2019-03-26T09:36:11.128Z,40.40
2019-03-26T09:38:42.490Z,41.10
2019-03-26T09:41:14.052Z,42.50
2019-03-26T09:43:50.428Z,42.90
2019-03-26T09:46:25.658Z,41.40
2019-03-26T09:48:57.062Z,40.30
2019-03-26T09:51:29.148Z,40.70
2019-03-26T09:54:01.151Z,41.70
2019-03-26T09:56:33.727Z,41.40
2019-03-26T09:59:04.878Z,41.90
2019-03-26T10:01:54.610Z,42.10
2019-03-26T10:04:26.238Z,40.40
2019-03-26T10:07:00.811Z,41.40
2019-03-26T10:09:31.753Z,39.90
2019-03-26T10:12:03.033Z,40.10
2019-03-26T10:14:34.380Z,39.90
2019-03-26T10:17:07.402Z,40.70
2019-03-26T10:19:38.867Z,42.10
2019-03-26T10:22:12.101Z,40.60
2019-03-26T10:24:43.284Z,41.00
2019-03-26T10:27:14.362Z,41.00
2019-03-26T10:33:26.862Z,40.40
2019-03-26T10:35:57.768Z,41.90
2019-03-26T10:38:28.631Z,41.10
2019-03-26T10:41:13.416Z,40.80
2019-03-26T10:43:44.533Z,42.80
2019-03-26T10:46:16.838Z,41.00
2019-03-26T10:48:49.118Z,40.40
2019-03-26T10:51:20.443Z,40.20
2019-03-26T10:53:52.593Z,41.40
2019-03-26T10:56:23.787Z,42.10
2019-03-26T10:58:54.830Z,42.30
2019-03-26T11:01:25.943Z,41.10
2019-03-26T11:03:56.825Z,41.50
2019-03-26T11:06:27.971Z,42.50
2019-03-26T11:08:58.715Z,42.60
2019-03-26T11:11:30.008Z,42.20
2019-03-26T11:14:00.792Z,42.80
2019-03-26T11:16:31.967Z,43.00
2019-03-26T11:19:03.015Z,42.80
2019-03-26T11:21:34.170Z,43.10
2019-03-26T11:24:05.276Z,43.20
2019-03-26T11:26:36.440Z,43.30
2019-03-26T11:29:07.236Z,43.10
2019-03-26T11:31:39.602Z,43.70
2019-03-26T11:34:11.571Z,43.20
2019-03-26T11:36:42.410Z,43.10
2019-03-26T11:39:13.465Z,43.60
2019-03-26T11:41:45.193Z,43.80
2019-03-26T11:44:16.337Z,43.90
2019-03-26T11:46:47.140Z,43.70
2019-03-26T11:49:18.391Z,43.90
2019-03-26T11:51:49.365Z,44.00
2019-03-26T11:54:20.613Z,43.80
2019-03-26T11:56:51.886Z,43.60
2019-03-26T11:59:22.850Z,43.90
2019-03-26T12:01:53.823Z,43.90
2019-03-26T12:04:25.108Z,43.90
2019-03-26T12:06:58.524Z,43.20
2019-03-26T12:09:29.670Z,43.50
2019-03-26T12:12:00.619Z,43.80
2019-03-26T12:14:34.638Z,44.10
2019-03-26T12:17:05.899Z,44.40
2019-03-26T12:19:37.968Z,45.00
2019-03-26T12:22:09.795Z,44.40
2019-03-26T12:24:40.500Z,44.60
2019-03-26T12:27:11.262Z,44.30
2019-03-26T12:29:42.102Z,44.40
2019-03-26T12:32:12.970Z,44.60
2019-03-26T12:34:44.152Z,44.40
2019-03-26T12:37:15.188Z,44.30
2019-03-26T12:39:58.993Z,45.20
2019-03-26T12:42:20.033Z,45.00
2019-03-26T12:44:53.115Z,45.30
2019-03-26T12:47:24.291Z,45.40
2019-03-26T12:49:55.230Z,44.80
2019-03-26T12:52:27.135Z,45.20
2019-03-26T12:54:58.837Z,45.50
2019-03-26T12:57:31.245Z,45.20
2019-03-26T13:00:02.947Z,46.10
2019-03-26T13:02:35.939Z,46.50
2019-03-26T13:05:08.166Z,46.50
2019-03-26T13:07:39.283Z,46.70
2019-03-26T13:10:13.998Z,46.90
2019-03-26T13:12:43.418Z,47.40
2019-03-26T13:15:14.531Z,47.20
2019-03-26T13:17:45.395Z,47.30
2019-03-26T13:20:16.562Z,47.20
2019-03-26T13:22:47.986Z,47.40
2019-03-26T13:25:19.050Z,47.40
2019-03-26T13:27:49.966Z,47.50
2019-03-26T13:30:21.334Z,47.70
2019-03-26T13:32:53.299Z,47.70
2019-03-26T13:35:25.228Z,47.90
2019-03-26T13:37:56.401Z,48.00
2019-03-26T13:40:27.994Z,48.10
2019-03-26T13:42:59.162Z,48.20
2019-03-26T13:45:32.668Z,48.30
2019-03-26T13:48:02.582Z,48.80
2019-03-26T13:50:33.600Z,48.70
2019-03-26T13:53:05.688Z,48.90
2019-03-26T13:55:37.472Z,49.50
2019-03-26T13:58:08.577Z,49.40
2019-03-26T14:00:40.964Z,49.40
2019-03-26T14:03:12.029Z,50.30
2019-03-26T14:05:42.953Z,49.60
2019-03-26T14:08:14.200Z,49.80
2019-03-26T14:10:45.143Z,50.20
2019-03-26T14:13:16.166Z,50.70
2019-03-26T14:15:47.292Z,50.90
2019-03-26T14:18:18.290Z,51.50
2019-03-26T14:20:49.533Z,51.20
2019-03-26T14:23:20.739Z,52.00
2019-03-26T14:25:51.739Z,52.10
2019-03-26T14:28:23.202Z,51.90
2019-03-26T14:30:54.067Z,51.70
2019-03-26T14:33:25.251Z,52.20
2019-03-26T14:35:56.313Z,51.80
2019-03-26T14:38:27.426Z,53.10
2019-03-26T14:40:58.332Z,52.90
2019-03-26T14:43:29.512Z,52.70
2019-03-26T14:46:00.468Z,52.80
2019-03-26T14:48:31.286Z,54.30
2019-03-26T14:51:02.564Z,54.10
2019-03-26T14:53:33.543Z,54.30
2019-03-26T14:56:04.684Z,53.50
2019-03-26T14:58:35.711Z,53.40
2019-03-26T15:01:06.698Z,52.90
2019-03-26T15:03:37.906Z,53.90
2019-03-26T15:06:08.533Z,53.90
2019-03-26T15:08:40.475Z,53.60
2019-03-26T15:11:11.384Z,53.70
2019-03-26T15:13:43.706Z,53.80
2019-03-26T15:16:15.032Z,54.00
2019-03-26T15:18:46.021Z,53.90
2019-03-26T15:21:16.965Z,53.40
2019-03-26T15:23:48.370Z,53.60
2019-03-26T15:26:19.410Z,53.70
2019-03-26T15:28:50.343Z,53.90
2019-03-26T15:31:21.518Z,54.20
2019-03-26T15:33:52.472Z,54.60
2019-03-26T15:36:23.638Z,54.40
2019-03-26T15:38:55.039Z,54.60
2019-03-26T15:41:26.633Z,54.90
2019-03-26T15:43:57.357Z,55.20
2019-03-26T15:46:29.531Z,54.60
2019-03-26T15:49:00.525Z,54.30
2019-03-26T15:51:31.452Z,54.70
2019-03-26T15:54:02.531Z,54.80
2019-03-26T15:56:33.242Z,54.70
2019-03-26T15:59:04.116Z,55.50
2019-03-26T16:01:35.183Z,54.80
2019-03-26T16:04:06.159Z,54.90
2019-03-26T16:06:37.331Z,55.40
2019-03-26T16:09:10.281Z,54.80
2019-03-26T16:11:41.341Z,54.70
2019-03-26T16:14:12.282Z,54.20
2019-03-26T16:16:43.279Z,54.60
2019-03-26T16:19:14.294Z,54.90
2019-03-26T16:21:45.431Z,54.60
2019-03-26T16:24:16.758Z,54.60
2019-03-26T16:26:47.862Z,56.00
2019-03-26T16:29:19.007Z,56.60
2019-03-26T16:31:50.093Z,56.50
2019-03-26T16:34:21.125Z,55.20
2019-03-26T16:36:59.297Z,54.80
2019-03-26T16:39:24.490Z,57.00
2019-03-26T16:41:55.443Z,57.00
2019-03-26T16:44:26.416Z,56.40
2019-03-26T16:46:57.490Z,55.90
2019-03-26T16:49:28.465Z,55.40
2019-03-26T16:51:59.334Z,56.10
2019-03-26T16:54:30.848Z,56.60
2019-03-26T16:57:01.831Z,56.30
2019-03-26T16:59:32.820Z,56.20
2019-03-26T17:02:03.906Z,56.30
2019-03-26T17:04:34.840Z,55.50
2019-03-26T17:07:06.348Z,55.70
2019-03-26T17:09:37.200Z,56.90
2019-03-26T17:12:07.983Z,57.10
2019-03-26T17:14:39.070Z,56.40
2019-03-26T17:17:09.993Z,57.10
2019-03-26T17:19:41.099Z,57.50
2019-03-26T17:22:12.261Z,56.60
2019-03-26T17:24:43.332Z,57.60
2019-03-26T17:27:14.233Z,58.00
2019-03-26T17:29:45.187Z,57.40
2019-03-26T17:32:16.289Z,56.50
2019-03-26T17:34:47.238Z,56.80
2019-03-26T17:37:18.229Z,56.90
2019-03-26T17:39:49.392Z,57.00
2019-03-26T17:42:20.276Z,56.70
2019-03-26T17:44:51.412Z,57.20
2019-03-26T17:47:22.427Z,57.30
2019-03-26T17:49:56.813Z,57.50
2019-03-26T17:52:27.805Z,56.70
2019-03-26T17:54:58.733Z,56.90
2019-03-26T17:57:29.648Z,56.70
2019-03-26T18:00:00.649Z,56.30
2019-03-26T18:02:31.807Z,57.00
2019-03-26T18:05:03.051Z,56.70
2019-03-26T18:07:34.224Z,57.10
2019-03-26T18:10:06.891Z,58.60
2019-03-26T18:12:37.840Z,57.60
2019-03-26T18:15:08.905Z,56.80
2019-03-26T18:17:40.060Z,56.70
2019-03-26T18:20:11.083Z,56.60
2019-03-26T18:22:41.899Z,56.70
2019-03-26T18:25:12.937Z,56.90
2019-03-26T18:27:43.848Z,57.40
2019-03-26T18:30:15.431Z,56.70
2019-03-26T18:32:46.348Z,57.10
2019-03-26T18:35:17.175Z,57.20
2019-03-26T18:37:49.324Z,57.30
2019-03-26T18:40:20.331Z,58.80
2019-03-26T18:42:51.569Z,58.20
2019-03-26T18:45:22.431Z,57.50
2019-03-26T18:47:53.497Z,57.90
2019-03-26T18:50:24.502Z,57.70
2019-03-26T18:52:55.469Z,58.10
2019-03-26T18:55:26.543Z,58.00
2019-03-26T18:57:57.675Z,59.20
2019-03-26T19:00:31.152Z,60.50
2019-03-26T19:03:02.425Z,57.90
2019-03-26T19:05:33.581Z,57.70
2019-03-26T19:08:04.467Z,58.10
2019-03-26T19:10:37.484Z,57.60
2019-03-26T19:13:19.239Z,57.70
2019-03-26T19:15:41.618Z,57.60
2019-03-26T19:18:12.604Z,58.30
2019-03-26T19:20:43.563Z,57.90
2019-03-26T19:23:14.874Z,57.70
2019-03-26T19:25:45.854Z,57.70
2019-03-26T19:28:16.922Z,58.50
2019-03-26T19:30:50.891Z,58.20
2019-03-26T19:33:22.024Z,58.50
2019-03-26T19:35:53.250Z,57.80
2019-03-26T19:38:24.326Z,58.10
2019-03-26T19:40:55.331Z,58.10
2019-03-26T19:43:26.272Z,58.20
2019-03-26T19:45:57.150Z,59.50
2019-03-26T19:48:28.174Z,59.80
2019-03-26T19:50:59.222Z,61.50
2019-03-26T19:53:30.163Z,61.00
2019-03-26T19:56:01.314Z,58.80
2019-03-26T19:58:32.359Z,58.20
2019-03-26T20:01:03.228Z,58.60
2019-03-26T20:03:34.259Z,60.70
2019-03-26T20:06:13.526Z,59.30
2019-03-26T20:08:37.212Z,58.50
2019-03-26T20:11:08.402Z,58.40
2019-03-26T20:13:39.250Z,58.40
2019-03-26T20:16:10.291Z,58.20
2019-03-26T20:18:41.180Z,58.30
2019-03-26T20:21:12.073Z,58.50
2019-03-26T20:23:43.295Z,58.20
2019-03-26T20:26:14.375Z,58.20
2019-03-26T20:28:45.205Z,58.60
2019-03-26T20:31:16.289Z,60.90
2019-03-26T20:33:47.432Z,62.20
2019-03-26T20:36:18.663Z,62.60
2019-03-26T20:38:51.415Z,60.20
2019-03-26T20:41:21.982Z,60.70
2019-03-26T20:43:53.049Z,61.40
2019-03-26T20:46:24.050Z,61.90
2019-03-26T20:48:55.072Z,60.50
2019-03-26T20:51:25.912Z,60.90
2019-03-26T20:53:56.953Z,61.30
2019-03-26T20:56:28.489Z,61.40
2019-03-26T20:58:59.795Z,61.20
2019-03-26T21:01:34.207Z,62.00
2019-03-26T21:04:05.242Z,64.10
2019-03-26T21:06:36.239Z,63.50
2019-03-26T21:09:08.566Z,63.30
2019-03-26T21:11:39.422Z,61.80
2019-03-26T21:14:10.132Z,63.30
2019-03-26T21:16:41.343Z,63.10
2019-03-26T21:19:12.118Z,62.80
2019-03-26T21:21:42.813Z,61.60
2019-03-26T21:24:13.830Z,60.70
2019-03-26T21:26:45.003Z,61.00
2019-03-26T21:29:16.126Z,61.00
2019-03-26T21:31:50.181Z,61.40
2019-03-26T21:34:30.448Z,60.20
2019-03-26T21:36:53.971Z,60.50
2019-03-26T21:39:25.030Z,60.20
2019-03-26T21:41:56.880Z,60.90
2019-03-26T21:44:28.075Z,61.40
2019-03-26T21:46:58.951Z,61.50
2019-03-26T21:49:30.017Z,62.00
2019-03-26T21:52:01.152Z,61.30
2019-03-26T21:54:32.367Z,61.60
2019-03-26T21:57:03.370Z,61.70
2019-03-26T21:59:34.420Z,61.30
2019-03-26T22:02:08.665Z,61.80
2019-03-26T22:04:39.572Z,61.60
2019-03-26T22:07:10.658Z,61.70
2019-03-26T22:09:41.828Z,61.50
2019-03-26T22:12:12.776Z,61.20
2019-03-26T22:14:43.770Z,61.00
2019-03-26T22:17:14.847Z,61.70
2019-03-26T22:19:45.758Z,62.60
2019-03-26T22:22:18.261Z,61.00
2019-03-26T22:24:49.060Z,60.40
2019-03-26T22:27:20.046Z,61.70
2019-03-26T22:29:50.946Z,61.50
2019-03-26T22:32:22.203Z,61.80
2019-03-26T22:34:53.031Z,62.10
2019-03-26T22:37:24.106Z,63.10
2019-03-26T22:39:55.064Z,61.00
2019-03-26T22:42:26.412Z,60.70
2019-03-26T22:44:57.361Z,63.40
2019-03-26T22:47:28.633Z,62.10
2019-03-26T22:49:59.464Z,61.70
2019-03-26T22:52:30.742Z,64.80
2019-03-26T22:55:01.845Z,65.90
2019-03-26T22:57:32.911Z,66.10
2019-03-26T23:00:04.040Z,65.90
2019-03-26T23:02:35.062Z,65.80
2019-03-26T23:05:07.992Z,67.90
2019-03-26T23:07:39.029Z,68.20
2019-03-26T23:10:10.791Z,67.70
2019-03-26T23:12:42.116Z,66.60
2019-03-26T23:15:15.817Z,65.10
2019-03-26T23:17:52.709Z,65.40
2019-03-26T23:20:23.752Z,64.50
2019-03-26T23:22:54.713Z,64.30
2019-03-26T23:25:25.711Z,63.50
2019-03-26T23:27:56.960Z,64.10
2019-03-26T23:30:27.786Z,63.40
2019-03-26T23:32:58.672Z,63.70
2019-03-26T23:35:31.145Z,63.20
2019-03-26T23:38:02.099Z,63.80
2019-03-26T23:40:34.181Z,64.40
2019-03-26T23:43:05.243Z,64.80
2019-03-26T23:45:36.318Z,64.80
2019-03-26T23:48:07.248Z,64.30
2019-03-26T23:50:38.377Z,64.50
2019-03-26T23:53:09.470Z,66.00
2019-03-26T23:55:40.590Z,65.60
2019-03-26T23:58:11.647Z,65.10
